FW9465 Weather Reports


Display with metric or nautical units.
time (UTC)temp
F
wind
direction
speed
MPH
gust
MPH
rain 1hr
in
rain 24hr
in
rain mn
in
humidity
%
barometer
mb
20220707035309 89 136 6.0 9.0 0.00 0.00 0.00 38 1013.4
20220707034310 89 137 6.0 7.0 0.00 0.00 0.00 37 1013.4
20220707033407 90 142 5.0 7.0 0.00 0.00 0.00 37 1013.3
20220707032408 90 135 7.0 9.0 0.00 0.00 0.00 37 1013.1
20220707031407 91 132 5.0 7.0 0.00 0.00 0.00 36 1012.9
20220707030410 91 135 6.0 7.0 0.00 0.00 0.00 35 1012.9
20220707025507 91 138 5.0 7.0 0.00 0.00 0.00 35 1012.6
20220707024606 92 130 7.0 10.0 0.00 0.00 0.00 34 1012.4
20220707023606 92 134 6.0 8.0 0.00 0.00 0.00 33 1012.5
20220707022606 93 135 6.0 7.0 0.00 0.00 0.00 32 1012.4
20220707021607 93 130 8.0 10.0 0.00 0.00 0.00 32 1012.3
20220707020644 94 132 7.0 10.0 0.00 0.00 0.00 32 1012.4
20220707015609 94 137 7.0 10.0 0.00 0.00 0.00 31 1012.3
20220707014706 95 137 7.0 9.0 0.00 0.00 0.00 30 1012.2
20220707013743 96 131 5.0 7.0 0.00 0.00 0.00 29 1012.0
20220707012808 97 137 6.0 7.0 0.00 0.00 0.00 28 1012.0
20220707011806 98 130 7.0 9.0 0.00 0.00 0.00 27 1011.8
20220707010806 98 134 5.0 11.0 0.00 0.00 0.00 26 1011.8
20220707005806 99 137 9.0 14.0 0.00 0.00 0.00 26 1011.7
20220707004807 99 134 13.0 17.0 0.00 0.00 0.00 25 1011.7
20220707003807 100 134 13.0 18.0 0.00 0.00 0.00 26 1011.7
20220707002846 100 124 10.0 16.0 0.00 0.00 0.00 25 1011.6
20220707001907 101 115 8.0 13.0 0.00 0.00 0.00 25 1011.5
20220707000906 101 130 8.0 16.0 0.00 0.00 0.00 25 1011.4
20220706235909 102 132 8.0 10.0 0.00 0.00 0.00 24 1011.4
20220706234908 102 148 6.0 10.0 0.00 0.00 0.00 25 1011.4
20220706234006 102 122 8.0 10.0 0.00 0.00 0.00 24 1011.4
20220706233008 102 135 6.0 13.0 0.00 0.00 0.00 23 1011.3
20220706232007 102 102 7.0 11.0 0.00 0.00 0.00 23 1011.4
20220706231008 103 104 5.0 11.0 0.00 0.00 0.00 22 1011.5
20220706230042 102 141 3.0 7.0 0.00 0.00 0.00 22 1011.6
20220706225008 102 128 7.0 11.0 0.00 0.00 0.00 23 1011.6
20220706224008 102 143 8.0 10.0 0.00 0.00 0.00 23 1011.9
20220706223107 103 140 7.0 9.0 0.00 0.00 0.00 23 1012.0
20220706222108 102 160 6.0 9.0 0.00 0.00 0.00 23 1012.1
20220706221206 103 86 9.0 13.0 0.00 0.00 0.00 23 1012.2
20220706220208 102 139 10.0 13.0 0.00 0.00 0.00 24 1012.1
20220706215208 102 112 8.0 12.0 0.00 0.00 0.00 25 1012.1
20220706214307 101 137 7.0 12.0 0.00 0.00 0.00 25 1012.3
20220706213307 101 129 11.0 16.0 0.00 0.00 0.00 25 1012.4
20220706212306 101 131 10.0 16.0 0.00 0.00 0.00 26 1012.4
20220706211406 101 80 8.0 12.0 0.00 0.00 0.00 26 1012.4
20220706210407 100 132 7.0 11.0 0.00 0.00 0.00 27 1012.6
20220706205507 100 104 9.0 15.0 0.00 0.00 0.00 27 1012.6
20220706204543 101 87 8.0 14.0 0.00 0.00 0.00 28 1012.6
20220706203507 101 94 8.0 13.0 0.00 0.00 0.00 28 1012.8
20220706202506 100 174 0.0 2.0 0.00 0.00 0.00 28 1012.8
20220706201507 100 88 5.0 8.0 0.00 0.00 0.00 29 1012.9
20220706200605 100 99 4.0 11.0 0.00 0.00 0.00 29 1012.9
20220706195608 100 133 10.0 14.0 0.00 0.00 0.00 30 1012.9
20220706194707 100 87 4.0 6.0 0.00 0.00 0.00 30 1013.1
20220706193807 101 75 10.0 17.0 0.00 0.00 0.00 30 1013.1
20220706192906 101 165 6.0 10.0 0.00 0.00 0.00 30 1013.4
20220706191909 100 112 1.0 4.0 0.00 0.00 0.00 30 1013.6
20220706191006 100 93 5.0 9.0 0.00 0.00 0.00 31 1013.6
20220706190105 100 130 4.0 7.0 0.00 0.00 0.00 31 1013.8
20220706185107 99 161 5.0 8.0 0.00 0.00 0.00 33 1013.8
20220706184142 98 52 2.0 4.0 0.00 0.00 0.00 34 1014.1
20220706183206 99 131 9.0 14.0 0.00 0.00 0.00 34 1014.2
20220706182207 99 187 5.0 10.0 0.00 0.00 0.00 35 1014.5
20220706181207 98 198 7.0 13.0 0.00 0.00 0.00 35 1014.5
20220706180244 98 144 8.0 12.0 0.00 0.00 0.00 36 1014.7
20220706175207 98 125 5.0 9.0 0.00 0.00 0.00 37 1014.8
20220706174245 97 153 10.0 14.0 0.00 0.00 0.00 37 1014.9
20220706173244 97 179 3.0 7.0 0.00 0.00 0.00 36 1015.0
20220706172207 97 171 7.0 9.0 0.00 0.00 0.00 38 1015.2
20220706171206 96 178 4.0 6.0 0.00 0.00 0.00 38 1015.2
20220706170305 96 164 8.0 12.0 0.00 0.00 0.00 38 1015.3
20220706165306 96 165 4.0 7.0 0.00 0.00 0.00 39 1015.2
20220706164306 95 212 3.0 7.0 0.00 0.00 0.00 40 1015.4
20220706163306 95 157 6.0 9.0 0.00 0.00 0.00 41 1015.4
20220706162404 94 192 5.0 10.0 0.00 0.00 0.00 42 1015.6
20220706161407 93 203 5.0 9.0 0.00 0.00 0.00 43 1015.8
20220706160425 92 157 7.0 13.0 0.00 0.00 0.00 44 1015.8
20220706155427 92 220 4.0 9.0 0.00 0.00 0.00 44 1015.9
20220706154425 92 189 4.0 7.0 0.00 0.00 0.00 45 1015.8
20220706153425 92 174 5.0 10.0 0.00 0.00 0.00 45 1015.8
20220706152428 91 179 6.0 11.0 0.00 0.00 0.00 46 1015.9
20220706151505 90 193 3.0 7.0 0.00 0.00 0.00 48 1016.0
20220706150428 89 210 7.0 13.0 0.00 0.00 0.00 50 1016.2
20220706145504 89 191 7.0 14.0 0.00 0.00 0.00 50 1016.1
20220706144525 88 204 6.0 13.0 0.00 0.00 0.00 51 1016.3
20220706143624 88 181 9.0 15.0 0.00 0.00 0.00 52 1016.2
20220706142627 87 166 8.0 15.0 0.00 0.00 0.00 52 1016.1
20220706141627 87 199 5.0 8.0 0.00 0.00 0.00 53 1016.2
20220706140626 86 180 6.0 10.0 0.00 0.00 0.00 54 1016.0
20220706135704 85 171 6.0 10.0 0.00 0.00 0.00 55 1015.9
20220706134726 85 161 11.0 16.0 0.00 0.00 0.00 56 1015.8
20220706133803 84 176 7.0 11.0 0.00 0.00 0.00 57 1015.9
20220706132726 83 153 6.0 9.0 0.00 0.00 0.00 57 1015.5
20220706131727 83 149 7.0 14.0 0.00 0.00 0.00 60 1015.5
20220706130726 82 156 5.0 10.0 0.00 0.00 0.00 61 1015.5
20220706125825 82 150 9.0 12.0 0.00 0.00 0.00 62 1015.4
20220706124903 81 157 9.0 16.0 0.00 0.00 0.00 63 1015.3
20220706123901 80 150 6.0 8.0 0.00 0.00 0.00 65 1015.5
20220706122824 80 162 4.0 7.0 0.00 0.00 0.00 66 1015.3
20220706121827 79 156 5.0 6.0 0.00 0.00 0.00 67 1015.0
20220706120827 79 153 4.0 7.0 0.00 0.00 0.00 67 1015.2
20220706115827 79 157 2.0 5.0 0.00 0.00 0.00 67 1015.1
20220706114925 79 157 5.0 6.0 0.00 0.00 0.00 67 1014.8
20220706113926 79 156 4.0 6.0 0.00 0.00 0.00 67 1014.6
20220706113024 79 157 4.0 6.0 0.00 0.00 0.00 66 1014.5
20220706112025 80 155 6.0 9.0 0.00 0.00 0.00 66 1014.5
20220706111123 80 156 5.0 7.0 0.00 0.00 0.00 66 1014.1
20220706110203 80 149 7.0 11.0 0.00 0.00 0.00 65 1014.1
20220706105126 80 159 5.0 9.0 0.00 0.00 0.00 65 1014.1
20220706104201 81 157 5.0 8.0 0.00 0.00 0.00 64 1014.1
20220706103126 81 161 7.0 11.0 0.00 0.00 0.00 64 1014.0
20220706102126 81 154 6.0 10.0 0.00 0.00 0.00 63 1013.6
20220706101125 81 158 7.0 11.0 0.00 0.00 0.00 63 1013.7
20220706100223 82 164 6.0 11.0 0.00 0.00 0.00 63 1013.7
20220706095226 82 157 6.0 10.0 0.00 0.00 0.00 62 1013.6
20220706094225 82 163 8.0 11.0 0.00 0.00 0.00 62 1013.6
20220706093226 82 157 10.0 15.0 0.00 0.00 0.00 61 1013.4
20220706092224 82 166 6.0 11.0 0.00 0.00 0.00 61 1013.3
20220706091301 82 173 6.0 11.0 0.00 0.00 0.00 60 1013.3
20220706090225 82 154 6.0 10.0 0.00 0.00 0.00 59 1013.3
20220706085227 83 165 5.0 9.0 0.00 0.00 0.00 58 1013.2
20220706084226 83 160 6.0 10.0 0.00 0.00 0.00 57 1013.2
20220706083301 83 159 6.0 9.0 0.00 0.00 0.00 56 1013.3
20220706082224 83 162 7.0 11.0 0.00 0.00 0.00 56 1013.2
20220706081225 84 162 7.0 11.0 0.00 0.00 0.00 55 1013.2
20220706080324 84 164 7.0 13.0 0.00 0.00 0.00 55 1013.2
20220706075401 84 169 7.0 12.0 0.00 0.00 0.00 53 1013.0
20220706074325 84 165 7.0 11.0 0.00 0.00 0.00 53 1013.1
20220706073423 84 162 8.0 15.0 0.00 0.00 0.00 53 1013.0
20220706072426 84 175 8.0 12.0 0.00 0.00 0.00 52 1013.0
20220706071524 84 161 6.0 14.0 0.00 0.00 0.00 50 1013.0
20220706070524 84 156 6.0 10.0 0.00 0.00 0.00 51 1013.3
20220706070425 84 159 7.0 13.0 0.00 0.00 0.00 51 1013.3
20220706065523 84 157 7.0 12.0 0.00 0.00 0.00 50 1013.2
20220706064525 85 159 8.0 11.0 0.00 0.00 0.00 50 1013.2
20220706063526 85 153 5.0 9.0 0.00 0.00 0.00 49 1013.2
20220706062604 85 152 6.0 9.0 0.00 0.00 0.00 49 1013.5
20220706061525 86 158 6.0 8.0 0.00 0.00 0.00 48 1013.5
20220706060524 86 156 5.0 8.0 0.00 0.00 0.00 48 1013.6
20220706055602 86 156 8.0 12.0 0.00 0.00 0.00 48 1013.5
20220706054623 86 145 10.0 13.0 0.00 0.00 0.00 48 1013.6
20220706053625 86 142 9.0 12.0 0.00 0.00 0.00 48 1013.8
20220706052624 86 148 8.0 10.0 0.00 0.00 0.00 48 1013.9
20220706051702 86 142 7.0 9.0 0.00 0.00 0.00 47 1013.9
20220706050725 86 147 5.0 7.0 0.00 0.00 0.00 47 1014.1
20220706045730 86 157 5.0 7.0 0.00 0.00 0.00 45 1014.0
20220706044809 86 157 3.0 5.0 0.00 0.00 0.00 46 1014.0
20220706043733 87 154 5.0 8.0 0.00 0.00 0.00 45 1014.1
20220706042831 87 156 5.0 7.0 0.00 0.00 0.00 44 1013.9
20220706041832 88 151 5.0 6.0 0.00 0.00 0.00 44 1014.1
20220706040830 88 156 5.0 8.0 0.00 0.00 0.00 43 1014.0
20220706035911 89 157 4.0 7.0 0.00 0.00 0.00 42 1014.0